sensor_id;sensor_type;location;lat;lon;timestamp;P1;durP1;ratioP1;P2;durP2;ratioP2
8574;SDS011;4325;42.520;27.448;2023-07-30T00:00:27;2.17;;;1.67;;
8574;SDS011;4325;42.520;27.448;2023-07-30T00:02:54;1.60;;;1.50;;
8574;SDS011;4325;42.520;27.448;2023-07-30T00:05:21;1.90;;;1.50;;
8574;SDS011;4325;42.520;27.448;2023-07-30T00:07:48;1.60;;;1.50;;
8574;SDS011;4325;42.520;27.448;2023-07-30T00:10:16;3.00;;;1.60;;
8574;SDS011;4325;42.520;27.448;2023-07-30T00:12:43;1.80;;;1.70;;
8574;SDS011;4325;42.520;27.448;2023-07-30T00:15:10;1.70;;;1.60;;
8574;SDS011;4325;42.520;27.448;2023-07-30T00:17:38;1.70;;;1.60;;
8574;SDS011;4325;42.520;27.448;2023-07-30T00:20:06;1.80;;;1.50;;
8574;SDS011;4325;42.520;27.448;2023-07-30T00:22:34;2.37;;;1.70;;
8574;SDS011;4325;42.520;27.448;2023-07-30T00:25:00;1.50;;;1.40;;
8574;SDS011;4325;42.520;27.448;2023-07-30T00:27:30;1.53;;;1.40;;
8574;SDS011;4325;42.520;27.448;2023-07-30T00:29:57;1.67;;;1.57;;
8574;SDS011;4325;42.520;27.448;2023-07-30T00:32:24;1.83;;;1.63;;
8574;SDS011;4325;42.520;27.448;2023-07-30T00:34:50;1.53;;;1.43;;
8574;SDS011;4325;42.520;27.448;2023-07-30T00:37:17;1.70;;;1.60;;
8574;SDS011;4325;42.520;27.448;2023-07-30T00:39:44;2.10;;;1.80;;
8574;SDS011;4325;42.520;27.448;2023-07-30T00:42:11;1.77;;;1.67;;
8574;SDS011;4325;42.520;27.448;2023-07-30T00:44:39;1.60;;;1.50;;
8574;SDS011;4325;42.520;27.448;2023-07-30T00:47:06;2.90;;;1.63;;
8574;SDS011;4325;42.520;27.448;2023-07-30T00:49:33;2.10;;;1.90;;
8574;SDS011;4325;42.520;27.448;2023-07-30T00:52:00;1.70;;;1.60;;
8574;SDS011;4325;42.520;27.448;2023-07-30T00:54:28;2.10;;;1.40;;
8574;SDS011;4325;42.520;27.448;2023-07-30T00:56:55;4.27;;;1.60;;
8574;SDS011;4325;42.520;27.448;2023-07-30T00:59:22;1.80;;;1.70;;
8574;SDS011;4325;42.520;27.448;2023-07-30T01:01:51;3.20;;;1.90;;
8574;SDS011;4325;42.520;27.448;2023-07-30T01:04:18;2.27;;;2.07;;
8574;SDS011;4325;42.520;27.448;2023-07-30T01:06:45;1.60;;;1.50;;
8574;SDS011;4325;42.520;27.448;2023-07-30T01:09:12;2.33;;;2.13;;
8574;SDS011;4325;42.520;27.448;2023-07-30T01:11:39;1.57;;;1.40;;
8574;SDS011;4325;42.520;27.448;2023-07-30T01:14:08;1.67;;;1.50;;
8574;SDS011;4325;42.520;27.448;2023-07-30T01:16:36;2.07;;;1.70;;
8574;SDS011;4325;42.520;27.448;2023-07-30T01:19:05;2.30;;;1.70;;
8574;SDS011;4325;42.520;27.448;2023-07-30T01:21:34;2.10;;;1.87;;
8574;SDS011;4325;42.520;27.448;2023-07-30T01:24:01;1.83;;;1.60;;
8574;SDS011;4325;42.520;27.448;2023-07-30T01:26:30;2.37;;;2.17;;
8574;SDS011;4325;42.520;27.448;2023-07-30T01:29:01;1.70;;;1.60;;
8574;SDS011;4325;42.520;27.448;2023-07-30T01:31:33;2.60;;;1.93;;
8574;SDS011;4325;42.520;27.448;2023-07-30T01:34:02;3.20;;;1.87;;
8574;SDS011;4325;42.520;27.448;2023-07-30T01:36:30;2.00;;;1.90;;
8574;SDS011;4325;42.520;27.448;2023-07-30T01:39:00;1.70;;;1.60;;
8574;SDS011;4325;42.520;27.448;2023-07-30T01:41:28;2.60;;;1.90;;
8574;SDS011;4325;42.520;27.448;2023-07-30T01:43:55;2.27;;;2.07;;
8574;SDS011;4325;42.520;27.448;2023-07-30T01:46:22;2.17;;;1.67;;
8574;SDS011;4325;42.520;27.448;2023-07-30T01:48:49;4.00;;;2.23;;
8574;SDS011;4325;42.520;27.448;2023-07-30T01:51:15;3.60;;;1.90;;
8574;SDS011;4325;42.520;27.448;2023-07-30T01:53:42;2.47;;;1.90;;
8574;SDS011;4325;42.520;27.448;2023-07-30T01:56:12;2.77;;;1.50;;
8574;SDS011;4325;42.520;27.448;2023-07-30T01:58:38;2.57;;;2.30;;
8574;SDS011;4325;42.520;27.448;2023-07-30T02:01:05;2.30;;;2.10;;
8574;SDS011;4325;42.520;27.448;2023-07-30T02:03:32;2.23;;;1.93;;
8574;SDS011;4325;42.520;27.448;2023-07-30T02:05:59;2.37;;;1.97;;
8574;SDS011;4325;42.520;27.448;2023-07-30T02:08:26;3.60;;;2.50;;
8574;SDS011;4325;42.520;27.448;2023-07-30T02:10:56;3.30;;;1.90;;
8574;SDS011;4325;42.520;27.448;2023-07-30T02:13:25;1.80;;;1.70;;
8574;SDS011;4325;42.520;27.448;2023-07-30T02:15:52;2.27;;;1.97;;
8574;SDS011;4325;42.520;27.448;2023-07-30T02:18:19;2.37;;;1.70;;
8574;SDS011;4325;42.520;27.448;2023-07-30T02:20:46;2.00;;;1.80;;
8574;SDS011;4325;42.520;27.448;2023-07-30T02:23:13;3.43;;;1.80;;
8574;SDS011;4325;42.520;27.448;2023-07-30T02:25:41;3.33;;;2.50;;
8574;SDS011;4325;42.520;27.448;2023-07-30T02:28:08;4.27;;;2.90;;
8574;SDS011;4325;42.520;27.448;2023-07-30T02:30:37;4.63;;;2.17;;
8574;SDS011;4325;42.520;27.448;2023-07-30T02:33:04;2.60;;;2.40;;
8574;SDS011;4325;42.520;27.448;2023-07-30T02:35:31;3.37;;;2.13;;
8574;SDS011;4325;42.520;27.448;2023-07-30T02:37:58;3.00;;;2.57;;
8574;SDS011;4325;42.520;27.448;2023-07-30T02:40:24;2.73;;;2.43;;
8574;SDS011;4325;42.520;27.448;2023-07-30T02:42:51;3.30;;;3.00;;
8574;SDS011;4325;42.520;27.448;2023-07-30T02:45:18;2.23;;;2.03;;
8574;SDS011;4325;42.520;27.448;2023-07-30T02:47:46;3.27;;;2.40;;
8574;SDS011;4325;42.520;27.448;2023-07-30T02:50:13;3.17;;;2.30;;
8574;SDS011;4325;42.520;27.448;2023-07-30T02:52:40;2.43;;;2.23;;
8574;SDS011;4325;42.520;27.448;2023-07-30T02:55:07;2.90;;;2.40;;
8574;SDS011;4325;42.520;27.448;2023-07-30T02:57:35;2.60;;;2.40;;
8574;SDS011;4325;42.520;27.448;2023-07-30T03:00:02;3.43;;;2.47;;
8574;SDS011;4325;42.520;27.448;2023-07-30T03:02:29;3.23;;;2.10;;
8574;SDS011;4325;42.520;27.448;2023-07-30T03:04:58;2.97;;;2.43;;
8574;SDS011;4325;42.520;27.448;2023-07-30T03:07:25;2.47;;;2.27;;
8574;SDS011;4325;42.520;27.448;2023-07-30T03:09:52;4.00;;;2.70;;
8574;SDS011;4325;42.520;27.448;2023-07-30T03:12:19;3.17;;;2.53;;
8574;SDS011;4325;42.520;27.448;2023-07-30T03:14:46;3.10;;;2.60;;
8574;SDS011;4325;42.520;27.448;2023-07-30T03:17:13;4.73;;;2.87;;
8574;SDS011;4325;42.520;27.448;2023-07-30T03:19:40;6.87;;;3.90;;
8574;SDS011;4325;42.520;27.448;2023-07-30T03:22:08;2.80;;;2.43;;
8574;SDS011;4325;42.520;27.448;2023-07-30T03:24:35;4.40;;;2.73;;
8574;SDS011;4325;42.520;27.448;2023-07-30T03:27:02;4.43;;;3.00;;
8574;SDS011;4325;42.520;27.448;2023-07-30T03:29:29;3.67;;;2.13;;
8574;SDS011;4325;42.520;27.448;2023-07-30T03:31:56;2.87;;;2.57;;
8574;SDS011;4325;42.520;27.448;2023-07-30T03:34:23;3.20;;;2.87;;
8574;SDS011;4325;42.520;27.448;2023-07-30T03:36:50;4.33;;;3.30;;
8574;SDS011;4325;42.520;27.448;2023-07-30T03:39:18;3.07;;;2.53;;
8574;SDS011;4325;42.520;27.448;2023-07-30T03:41:45;3.67;;;2.80;;
8574;SDS011;4325;42.520;27.448;2023-07-30T03:44:12;4.70;;;3.27;;
8574;SDS011;4325;42.520;27.448;2023-07-30T03:46:38;3.23;;;2.23;;
8574;SDS011;4325;42.520;27.448;2023-07-30T03:49:05;7.80;;;3.00;;
8574;SDS011;4325;42.520;27.448;2023-07-30T03:51:32;5.63;;;3.50;;
8574;SDS011;4325;42.520;27.448;2023-07-30T03:53:59;4.70;;;3.40;;
8574;SDS011;4325;42.520;27.448;2023-07-30T03:56:28;3.10;;;2.80;;
8574;SDS011;4325;42.520;27.448;2023-07-30T03:58:54;8.33;;;3.57;;
8574;SDS011;4325;42.520;27.448;2023-07-30T04:01:21;3.47;;;2.77;;
8574;SDS011;4325;42.520;27.448;2023-07-30T04:03:48;10.27;;;3.37;;
8574;SDS011;4325;42.520;27.448;2023-07-30T04:06:15;4.17;;;2.70;;
8574;SDS011;4325;42.520;27.448;2023-07-30T04:08:42;4.17;;;3.03;;
8574;SDS011;4325;42.520;27.448;2023-07-30T04:11:09;4.87;;;3.37;;
8574;SDS011;4325;42.520;27.448;2023-07-30T04:13:37;7.73;;;4.20;;
8574;SDS011;4325;42.520;27.448;2023-07-30T04:16:06;5.83;;;3.90;;
8574;SDS011;4325;42.520;27.448;2023-07-30T04:18:32;3.63;;;2.50;;
8574;SDS011;4325;42.520;27.448;2023-07-30T04:20:59;5.50;;;3.10;;
8574;SDS011;4325;42.520;27.448;2023-07-30T04:23:26;3.53;;;2.50;;
8574;SDS011;4325;42.520;27.448;2023-07-30T04:25:53;3.00;;;2.30;;
8574;SDS011;4325;42.520;27.448;2023-07-30T04:28:20;2.47;;;2.10;;
8574;SDS011;4325;42.520;27.448;2023-07-30T04:30:48;4.47;;;3.00;;
8574;SDS011;4325;42.520;27.448;2023-07-30T04:33:15;3.23;;;2.50;;
8574;SDS011;4325;42.520;27.448;2023-07-30T04:35:42;3.10;;;2.80;;
8574;SDS011;4325;42.520;27.448;2023-07-30T04:38:09;5.87;;;3.03;;
8574;SDS011;4325;42.520;27.448;2023-07-30T04:40:36;5.23;;;2.60;;
8574;SDS011;4325;42.520;27.448;2023-07-30T04:43:03;3.63;;;2.80;;
8574;SDS011;4325;42.520;27.448;2023-07-30T04:45:30;2.70;;;2.23;;
8574;SDS011;4325;42.520;27.448;2023-07-30T04:47:58;7.37;;;2.67;;
8574;SDS011;4325;42.520;27.448;2023-07-30T04:50:25;3.20;;;2.10;;
8574;SDS011;4325;42.520;27.448;2023-07-30T04:52:52;2.97;;;2.43;;
8574;SDS011;4325;42.520;27.448;2023-07-30T04:55:19;5.23;;;3.17;;
8574;SDS011;4325;42.520;27.448;2023-07-30T04:57:46;2.53;;;2.13;;
8574;SDS011;4325;42.520;27.448;2023-07-30T05:00:13;5.67;;;2.20;;
8574;SDS011;4325;42.520;27.448;2023-07-30T05:02:40;2.50;;;2.30;;
8574;SDS011;4325;42.520;27.448;2023-07-30T05:05:08;2.23;;;1.83;;
8574;SDS011;4325;42.520;27.448;2023-07-30T05:07:35;3.33;;;2.40;;
8574;SDS011;4325;42.520;27.448;2023-07-30T05:10:02;2.90;;;2.37;;
8574;SDS011;4325;42.520;27.448;2023-07-30T05:12:31;2.80;;;2.00;;
8574;SDS011;4325;42.520;27.448;2023-07-30T05:14:58;2.40;;;2.20;;
8574;SDS011;4325;42.520;27.448;2023-07-30T05:17:25;3.10;;;2.37;;
8574;SDS011;4325;42.520;27.448;2023-07-30T05:19:52;2.40;;;2.20;;
8574;SDS011;4325;42.520;27.448;2023-07-30T05:22:20;3.40;;;2.10;;
8574;SDS011;4325;42.520;27.448;2023-07-30T05:24:47;3.20;;;2.17;;
8574;SDS011;4325;42.520;27.448;2023-07-30T05:27:14;3.17;;;2.00;;
8574;SDS011;4325;42.520;27.448;2023-07-30T05:29:41;2.97;;;2.07;;
8574;SDS011;4325;42.520;27.448;2023-07-30T05:32:08;2.30;;;1.90;;
8574;SDS011;4325;42.520;27.448;2023-07-30T05:34:35;1.83;;;1.73;;
8574;SDS011;4325;42.520;27.448;2023-07-30T05:37:02;1.97;;;1.77;;
8574;SDS011;4325;42.520;27.448;2023-07-30T05:39:31;1.87;;;1.77;;
8574;SDS011;4325;42.520;27.448;2023-07-30T05:41:58;3.27;;;1.93;;
8574;SDS011;4325;42.520;27.448;2023-07-30T05:44:25;2.50;;;1.70;;
8574;SDS011;4325;42.520;27.448;2023-07-30T05:46:51;2.07;;;1.87;;
8574;SDS011;4325;42.520;27.448;2023-07-30T05:49:19;1.93;;;1.83;;
8574;SDS011;4325;42.520;27.448;2023-07-30T05:51:45;2.47;;;1.93;;
8574;SDS011;4325;42.520;27.448;2023-07-30T05:54:12;2.87;;;1.80;;
8574;SDS011;4325;42.520;27.448;2023-07-30T05:56:41;2.77;;;1.87;;
8574;SDS011;4325;42.520;27.448;2023-07-30T05:59:07;1.50;;;1.40;;
8574;SDS011;4325;42.520;27.448;2023-07-30T06:01:34;3.93;;;2.07;;
8574;SDS011;4325;42.520;27.448;2023-07-30T06:04:01;2.07;;;1.87;;
8574;SDS011;4325;42.520;27.448;2023-07-30T06:06:28;2.70;;;2.10;;
8574;SDS011;4325;42.520;27.448;2023-07-30T06:08:55;2.43;;;1.53;;
8574;SDS011;4325;42.520;27.448;2023-07-30T06:11:22;2.20;;;1.60;;
8574;SDS011;4325;42.520;27.448;2023-07-30T06:13:51;2.97;;;1.80;;
8574;SDS011;4325;42.520;27.448;2023-07-30T06:16:18;2.63;;;1.73;;
8574;SDS011;4325;42.520;27.448;2023-07-30T06:18:46;3.57;;;2.40;;
8574;SDS011;4325;42.520;27.448;2023-07-30T06:21:12;2.00;;;1.80;;
8574;SDS011;4325;42.520;27.448;2023-07-30T06:23:40;4.17;;;2.03;;
8574;SDS011;4325;42.520;27.448;2023-07-30T06:26:07;3.93;;;2.67;;
8574;SDS011;4325;42.520;27.448;2023-07-30T06:28:34;2.40;;;2.10;;
8574;SDS011;4325;42.520;27.448;2023-07-30T06:31:02;11.77;;;5.90;;
8574;SDS011;4325;42.520;27.448;2023-07-30T06:33:29;6.83;;;3.30;;
8574;SDS011;4325;42.520;27.448;2023-07-30T06:35:56;5.63;;;2.40;;
8574;SDS011;4325;42.520;27.448;2023-07-30T06:38:23;11.23;;;5.27;;
8574;SDS011;4325;42.520;27.448;2023-07-30T06:40:50;2.37;;;2.07;;
8574;SDS011;4325;42.520;27.448;2023-07-30T06:43:17;2.10;;;1.90;;
8574;SDS011;4325;42.520;27.448;2023-07-30T06:45:44;4.77;;;2.30;;
8574;SDS011;4325;42.520;27.448;2023-07-30T06:48:12;4.43;;;2.10;;
8574;SDS011;4325;42.520;27.448;2023-07-30T06:50:40;2.87;;;2.03;;
8574;SDS011;4325;42.520;27.448;2023-07-30T06:53:07;2.40;;;2.00;;
8574;SDS011;4325;42.520;27.448;2023-07-30T06:55:35;2.87;;;2.43;;
8574;SDS011;4325;42.520;27.448;2023-07-30T06:58:02;3.77;;;2.17;;
8574;SDS011;4325;42.520;27.448;2023-07-30T07:00:29;1.83;;;1.67;;
8574;SDS011;4325;42.520;27.448;2023-07-30T07:02:56;3.33;;;2.07;;
8574;SDS011;4325;42.520;27.448;2023-07-30T07:05:24;1.93;;;1.83;;
8574;SDS011;4325;42.520;27.448;2023-07-30T07:07:51;1.80;;;1.70;;
8574;SDS011;4325;42.520;27.448;2023-07-30T07:10:18;1.90;;;1.80;;
8574;SDS011;4325;42.520;27.448;2023-07-30T07:12:45;1.90;;;1.80;;
8574;SDS011;4325;42.520;27.448;2023-07-30T07:15:12;1.60;;;1.50;;
8574;SDS011;4325;42.520;27.448;2023-07-30T07:17:40;2.47;;;1.90;;
8574;SDS011;4325;42.520;27.448;2023-07-30T07:20:07;2.37;;;1.60;;
8574;SDS011;4325;42.520;27.448;2023-07-30T07:22:37;4.77;;;1.50;;
8574;SDS011;4325;42.520;27.448;2023-07-30T07:25:04;2.40;;;1.83;;
8574;SDS011;4325;42.520;27.448;2023-07-30T07:27:31;4.80;;;2.13;;
8574;SDS011;4325;42.520;27.448;2023-07-30T07:29:58;2.17;;;1.97;;
8574;SDS011;4325;42.520;27.448;2023-07-30T07:32:25;3.47;;;2.63;;
8574;SDS011;4325;42.520;27.448;2023-07-30T07:34:53;1.93;;;1.77;;
8574;SDS011;4325;42.520;27.448;2023-07-30T07:37:20;2.80;;;2.10;;
8574;SDS011;4325;42.520;27.448;2023-07-30T07:39:48;4.20;;;2.60;;
8574;SDS011;4325;42.520;27.448;2023-07-30T07:42:15;3.50;;;2.27;;
8574;SDS011;4325;42.520;27.448;2023-07-30T07:44:42;2.47;;;2.20;;
8574;SDS011;4325;42.520;27.448;2023-07-30T07:47:11;3.07;;;1.87;;
8574;SDS011;4325;42.520;27.448;2023-07-30T07:49:38;2.10;;;1.67;;
8574;SDS011;4325;42.520;27.448;2023-07-30T07:52:05;2.00;;;1.63;;
8574;SDS011;4325;42.520;27.448;2023-07-30T07:54:32;1.57;;;1.47;;
8574;SDS011;4325;42.520;27.448;2023-07-30T07:57:00;1.73;;;1.63;;
8574;SDS011;4325;42.520;27.448;2023-07-30T07:59:27;5.63;;;1.67;;
8574;SDS011;4325;42.520;27.448;2023-07-30T08:01:54;1.60;;;1.50;;
8574;SDS011;4325;42.520;27.448;2023-07-30T08:04:22;1.83;;;1.73;;
8574;SDS011;4325;42.520;27.448;2023-07-30T08:06:49;3.30;;;2.00;;
8574;SDS011;4325;42.520;27.448;2023-07-30T08:09:16;3.20;;;2.07;;
8574;SDS011;4325;42.520;27.448;2023-07-30T08:11:43;2.23;;;2.03;;
8574;SDS011;4325;42.520;27.448;2023-07-30T08:14:11;2.43;;;1.97;;
8574;SDS011;4325;42.520;27.448;2023-07-30T08:16:38;3.80;;;2.30;;
8574;SDS011;4325;42.520;27.448;2023-07-30T08:19:05;1.87;;;1.77;;
8574;SDS011;4325;42.520;27.448;2023-07-30T08:21:32;3.07;;;2.10;;
8574;SDS011;4325;42.520;27.448;2023-07-30T08:23:59;2.53;;;1.87;;
8574;SDS011;4325;42.520;27.448;2023-07-30T08:26:26;2.40;;;2.20;;
8574;SDS011;4325;42.520;27.448;2023-07-30T08:28:53;2.23;;;2.03;;
8574;SDS011;4325;42.520;27.448;2023-07-30T08:31:21;1.90;;;1.80;;
8574;SDS011;4325;42.520;27.448;2023-07-30T08:33:48;2.03;;;1.83;;
8574;SDS011;4325;42.520;27.448;2023-07-30T08:36:15;1.93;;;1.83;;
8574;SDS011;4325;42.520;27.448;2023-07-30T08:38:42;2.07;;;1.90;;
8574;SDS011;4325;42.520;27.448;2023-07-30T08:41:09;1.60;;;1.50;;
8574;SDS011;4325;42.520;27.448;2023-07-30T08:43:36;2.00;;;1.80;;
8574;SDS011;4325;42.520;27.448;2023-07-30T08:46:03;1.60;;;1.50;;
8574;SDS011;4325;42.520;27.448;2023-07-30T08:48:31;1.60;;;1.50;;
8574;SDS011;4325;42.520;27.448;2023-07-30T08:50:58;1.50;;;1.40;;
8574;SDS011;4325;42.520;27.448;2023-07-30T08:53:27;1.58;;;1.30;;
8574;SDS011;4325;42.520;27.448;2023-07-30T08:55:54;1.42;;;1.33;;
8574;SDS011;4325;42.520;27.448;2023-07-30T08:58:22;1.40;;;1.15;;
8574;SDS011;4325;42.520;27.448;2023-07-30T09:00:51;2.42;;;1.40;;
8574;SDS011;4325;42.520;27.448;2023-07-30T09:03:21;1.73;;;1.63;;
8574;SDS011;4325;42.520;27.448;2023-07-30T09:05:52;0.80;;;0.80;;
8574;SDS011;4325;42.520;27.448;2023-07-30T09:08:19;1.50;;;1.40;;
8574;SDS011;4325;42.520;27.448;2023-07-30T09:10:48;1.27;;;1.20;;
8574;SDS011;4325;42.520;27.448;2023-07-30T09:13:24;1.48;;;1.30;;
8574;SDS011;4325;42.520;27.448;2023-07-30T09:16:07;3.28;;;1.40;;
8574;SDS011;4325;42.520;27.448;2023-07-30T09:18:40;1.10;;;1.10;;
8574;SDS011;4325;42.520;27.448;2023-07-30T09:21:11;2.88;;;1.30;;
8574;SDS011;4325;42.520;27.448;2023-07-30T09:23:40;1.20;;;1.10;;
8574;SDS011;4325;42.520;27.448;2023-07-30T09:26:07;1.88;;;1.30;;
8574;SDS011;4325;42.520;27.448;2023-07-30T09:28:35;1.23;;;1.13;;
8574;SDS011;4325;42.520;27.448;2023-07-30T09:31:02;2.67;;;1.60;;
8574;SDS011;4325;42.520;27.448;2023-07-30T09:33:34;3.83;;;1.60;;
8574;SDS011;4325;42.520;27.448;2023-07-30T09:36:07;1.58;;;1.40;;
8574;SDS011;4325;42.520;27.448;2023-07-30T09:38:38;1.80;;;1.30;;
8574;SDS011;4325;42.520;27.448;2023-07-30T09:41:06;1.40;;;1.30;;
8574;SDS011;4325;42.520;27.448;2023-07-30T09:43:33;3.65;;;1.15;;
8574;SDS011;4325;42.520;27.448;2023-07-30T09:46:01;1.80;;;1.20;;
8574;SDS011;4325;42.520;27.448;2023-07-30T09:48:29;1.20;;;1.10;;
8574;SDS011;4325;42.520;27.448;2023-07-30T09:50:57;1.33;;;1.23;;
8574;SDS011;4325;42.520;27.448;2023-07-30T09:53:29;1.90;;;1.30;;
8574;SDS011;4325;42.520;27.448;2023-07-30T09:56:01;1.20;;;1.17;;
8574;SDS011;4325;42.520;27.448;2023-07-30T09:58:28;1.63;;;1.30;;
8574;SDS011;4325;42.520;27.448;2023-07-30T10:00:55;1.35;;;1.25;;
8574;SDS011;4325;42.520;27.448;2023-07-30T10:03:25;2.33;;;1.67;;
8574;SDS011;4325;42.520;27.448;2023-07-30T10:05:52;0.98;;;0.98;;
8574;SDS011;4325;42.520;27.448;2023-07-30T10:08:26;1.38;;;1.27;;
8574;SDS011;4325;42.520;27.448;2023-07-30T10:10:57;1.20;;;1.10;;
8574;SDS011;4325;42.520;27.448;2023-07-30T10:13:28;2.38;;;1.80;;
8574;SDS011;4325;42.520;27.448;2023-07-30T10:15:57;1.23;;;1.17;;
8574;SDS011;4325;42.520;27.448;2023-07-30T10:18:32;1.33;;;1.23;;
8574;SDS011;4325;42.520;27.448;2023-07-30T10:21:00;1.30;;;1.20;;
8574;SDS011;4325;42.520;27.448;2023-07-30T10:23:28;1.55;;;1.30;;
8574;SDS011;4325;42.520;27.448;2023-07-30T10:25:55;1.40;;;1.10;;
8574;SDS011;4325;42.520;27.448;2023-07-30T10:28:32;1.58;;;1.48;;
8574;SDS011;4325;42.520;27.448;2023-07-30T10:31:01;1.20;;;1.10;;
8574;SDS011;4325;42.520;27.448;2023-07-30T10:33:45;1.27;;;1.17;;
8574;SDS011;4325;42.520;27.448;2023-07-30T10:36:18;1.02;;;0.93;;
8574;SDS011;4325;42.520;27.448;2023-07-30T10:38:45;1.27;;;1.00;;
8574;SDS011;4325;42.520;27.448;2023-07-30T10:41:13;0.90;;;0.90;;
8574;SDS011;4325;42.520;27.448;2023-07-30T10:43:43;1.00;;;1.00;;
8574;SDS011;4325;42.520;27.448;2023-07-30T10:46:14;1.30;;;1.20;;
8574;SDS011;4325;42.520;27.448;2023-07-30T10:48:43;1.20;;;1.08;;
8574;SDS011;4325;42.520;27.448;2023-07-30T10:51:13;1.00;;;1.00;;
8574;SDS011;4325;42.520;27.448;2023-07-30T10:53:41;1.00;;;1.00;;
8574;SDS011;4325;42.520;27.448;2023-07-30T10:56:12;0.90;;;0.90;;
8574;SDS011;4325;42.520;27.448;2023-07-30T10:58:49;1.08;;;1.08;;
8574;SDS011;4325;42.520;27.448;2023-07-30T11:01:18;1.88;;;1.17;;
8574;SDS011;4325;42.520;27.448;2023-07-30T11:03:48;1.20;;;1.10;;
8574;SDS011;4325;42.520;27.448;2023-07-30T11:06:20;1.17;;;0.93;;
8574;SDS011;4325;42.520;27.448;2023-07-30T11:08:47;3.08;;;1.27;;
8574;SDS011;4325;42.520;27.448;2023-07-30T11:11:14;0.80;;;0.80;;
8574;SDS011;4325;42.520;27.448;2023-07-30T11:13:44;2.25;;;2.00;;
8574;SDS011;4325;42.520;27.448;2023-07-30T11:16:14;1.35;;;1.20;;
8574;SDS011;4325;42.520;27.448;2023-07-30T11:18:42;0.90;;;0.90;;
8574;SDS011;4325;42.520;27.448;2023-07-30T11:21:10;1.77;;;1.00;;
8574;SDS011;4325;42.520;27.448;2023-07-30T11:23:38;1.08;;;1.00;;
8574;SDS011;4325;42.520;27.448;2023-07-30T11:26:07;0.90;;;0.85;;
8574;SDS011;4325;42.520;27.448;2023-07-30T11:28:35;1.00;;;1.00;;
8574;SDS011;4325;42.520;27.448;2023-07-30T11:31:04;1.00;;;1.00;;
8574;SDS011;4325;42.520;27.448;2023-07-30T11:33:34;1.83;;;1.10;;
8574;SDS011;4325;42.520;27.448;2023-07-30T11:36:02;1.27;;;1.17;;
8574;SDS011;4325;42.520;27.448;2023-07-30T11:38:30;1.35;;;1.25;;
8574;SDS011;4325;42.520;27.448;2023-07-30T11:40:58;0.93;;;0.90;;
8574;SDS011;4325;42.520;27.448;2023-07-30T11:43:26;1.75;;;1.02;;
8574;SDS011;4325;42.520;27.448;2023-07-30T11:46:05;1.27;;;1.10;;
8574;SDS011;4325;42.520;27.448;2023-07-30T11:48:38;1.00;;;0.90;;
8574;SDS011;4325;42.520;27.448;2023-07-30T11:51:06;1.95;;;1.63;;
8574;SDS011;4325;42.520;27.448;2023-07-30T11:53:45;1.20;;;1.10;;
8574;SDS011;4325;42.520;27.448;2023-07-30T11:56:17;1.60;;;1.13;;
8574;SDS011;4325;42.520;27.448;2023-07-30T11:58:45;0.90;;;0.90;;
8574;SDS011;4325;42.520;27.448;2023-07-30T12:01:13;2.28;;;1.05;;
8574;SDS011;4325;42.520;27.448;2023-07-30T12:03:42;1.50;;;1.10;;
8574;SDS011;4325;42.520;27.448;2023-07-30T12:06:09;1.30;;;1.00;;
8574;SDS011;4325;42.520;27.448;2023-07-30T12:08:37;2.10;;;1.23;;
8574;SDS011;4325;42.520;27.448;2023-07-30T12:11:04;0.90;;;0.90;;
8574;SDS011;4325;42.520;27.448;2023-07-30T12:13:32;2.05;;;1.10;;
8574;SDS011;4325;42.520;27.448;2023-07-30T12:15:59;0.95;;;0.95;;
8574;SDS011;4325;42.520;27.448;2023-07-30T12:18:26;2.65;;;1.05;;
8574;SDS011;4325;42.520;27.448;2023-07-30T12:20:55;1.40;;;1.30;;
8574;SDS011;4325;42.520;27.448;2023-07-30T12:23:23;1.00;;;1.00;;
8574;SDS011;4325;42.520;27.448;2023-07-30T12:25:50;1.10;;;1.00;;
8574;SDS011;4325;42.520;27.448;2023-07-30T12:28:18;1.02;;;1.02;;
8574;SDS011;4325;42.520;27.448;2023-07-30T12:30:45;1.10;;;1.00;;
8574;SDS011;4325;42.520;27.448;2023-07-30T12:33:12;1.60;;;1.30;;
8574;SDS011;4325;42.520;27.448;2023-07-30T12:35:39;1.58;;;1.45;;
8574;SDS011;4325;42.520;27.448;2023-07-30T12:38:08;1.17;;;1.08;;
8574;SDS011;4325;42.520;27.448;2023-07-30T12:40:34;1.10;;;1.00;;
8574;SDS011;4325;42.520;27.448;2023-07-30T12:43:01;1.30;;;1.20;;
8574;SDS011;4325;42.520;27.448;2023-07-30T12:45:29;1.15;;;1.05;;
8574;SDS011;4325;42.520;27.448;2023-07-30T12:47:57;0.85;;;0.85;;
8574;SDS011;4325;42.520;27.448;2023-07-30T12:50:24;1.45;;;1.08;;
8574;SDS011;4325;42.520;27.448;2023-07-30T12:52:51;0.85;;;0.85;;
8574;SDS011;4325;42.520;27.448;2023-07-30T12:55:19;0.88;;;0.88;;
8574;SDS011;4325;42.520;27.448;2023-07-30T12:57:46;1.35;;;1.00;;
8574;SDS011;4325;42.520;27.448;2023-07-30T13:00:13;1.13;;;1.05;;
8574;SDS011;4325;42.520;27.448;2023-07-30T13:02:41;0.95;;;0.93;;
8574;SDS011;4325;42.520;27.448;2023-07-30T13:05:08;2.65;;;0.98;;
8574;SDS011;4325;42.520;27.448;2023-07-30T13:07:35;1.10;;;1.00;;
8574;SDS011;4325;42.520;27.448;2023-07-30T13:10:02;1.20;;;1.10;;
8574;SDS011;4325;42.520;27.448;2023-07-30T13:12:32;1.77;;;0.90;;
8574;SDS011;4325;42.520;27.448;2023-07-30T13:14:59;1.10;;;1.10;;
8574;SDS011;4325;42.520;27.448;2023-07-30T13:17:26;1.25;;;1.15;;
8574;SDS011;4325;42.520;27.448;2023-07-30T13:19:53;4.55;;;1.30;;
8574;SDS011;4325;42.520;27.448;2023-07-30T13:22:20;1.20;;;1.10;;
8574;SDS011;4325;42.520;27.448;2023-07-30T13:24:46;1.10;;;1.00;;
8574;SDS011;4325;42.520;27.448;2023-07-30T13:27:13;0.93;;;0.93;;
8574;SDS011;4325;42.520;27.448;2023-07-30T13:29:42;3.28;;;1.00;;
8574;SDS011;4325;42.520;27.448;2023-07-30T13:32:09;0.98;;;0.98;;
8574;SDS011;4325;42.520;27.448;2023-07-30T13:34:36;1.20;;;1.10;;
8574;SDS011;4325;42.520;27.448;2023-07-30T13:37:03;2.65;;;1.20;;
8574;SDS011;4325;42.520;27.448;2023-07-30T13:39:30;1.05;;;1.02;;
8574;SDS011;4325;42.520;27.448;2023-07-30T13:41:57;3.65;;;1.00;;
8574;SDS011;4325;42.520;27.448;2023-07-30T13:44:24;0.90;;;0.90;;
8574;SDS011;4325;42.520;27.448;2023-07-30T13:46:52;1.10;;;1.00;;
8574;SDS011;4325;42.520;27.448;2023-07-30T13:49:19;1.13;;;1.02;;
8574;SDS011;4325;42.520;27.448;2023-07-30T13:51:46;1.20;;;1.08;;
8574;SDS011;4325;42.520;27.448;2023-07-30T13:54:13;1.80;;;1.40;;
8574;SDS011;4325;42.520;27.448;2023-07-30T13:56:40;1.38;;;1.20;;
8574;SDS011;4325;42.520;27.448;2023-07-30T13:59:07;1.67;;;1.30;;
8574;SDS011;4325;42.520;27.448;2023-07-30T14:01:34;1.50;;;1.17;;
8574;SDS011;4325;42.520;27.448;2023-07-30T14:04:02;1.48;;;1.25;;
8574;SDS011;4325;42.520;27.448;2023-07-30T14:06:29;1.20;;;1.10;;
8574;SDS011;4325;42.520;27.448;2023-07-30T14:08:57;1.30;;;1.20;;
8574;SDS011;4325;42.520;27.448;2023-07-30T14:11:24;1.27;;;1.17;;
8574;SDS011;4325;42.520;27.448;2023-07-30T14:13:52;1.35;;;1.13;;
8574;SDS011;4325;42.520;27.448;2023-07-30T14:16:19;1.15;;;1.05;;
8574;SDS011;4325;42.520;27.448;2023-07-30T14:18:46;1.13;;;0.90;;
8574;SDS011;4325;42.520;27.448;2023-07-30T14:21:14;1.00;;;1.00;;
8574;SDS011;4325;42.520;27.448;2023-07-30T14:23:42;1.00;;;1.00;;
8574;SDS011;4325;42.520;27.448;2023-07-30T14:26:09;2.53;;;1.55;;
8574;SDS011;4325;42.520;27.448;2023-07-30T14:28:35;1.13;;;1.10;;
8574;SDS011;4325;42.520;27.448;2023-07-30T14:31:02;1.20;;;1.10;;
8574;SDS011;4325;42.520;27.448;2023-07-30T14:33:29;1.20;;;1.10;;
8574;SDS011;4325;42.520;27.448;2023-07-30T14:35:56;2.38;;;1.02;;
8574;SDS011;4325;42.520;27.448;2023-07-30T14:38:24;1.30;;;1.20;;
8574;SDS011;4325;42.520;27.448;2023-07-30T14:40:51;1.30;;;1.20;;
8574;SDS011;4325;42.520;27.448;2023-07-30T14:43:18;1.70;;;1.42;;
8574;SDS011;4325;42.520;27.448;2023-07-30T14:45:45;1.25;;;1.15;;
8574;SDS011;4325;42.520;27.448;2023-07-30T14:48:12;1.30;;;1.20;;
8574;SDS011;4325;42.520;27.448;2023-07-30T14:50:39;1.30;;;1.20;;
8574;SDS011;4325;42.520;27.448;2023-07-30T14:53:06;2.10;;;1.90;;
8574;SDS011;4325;42.520;27.448;2023-07-30T14:55:34;2.15;;;1.40;;
8574;SDS011;4325;42.520;27.448;2023-07-30T14:58:01;2.40;;;1.90;;
8574;SDS011;4325;42.520;27.448;2023-07-30T15:00:28;2.77;;;2.10;;
8574;SDS011;4325;42.520;27.448;2023-07-30T15:02:55;4.07;;;2.23;;